Time;durP1;ratioP1;P1;durP2;ratioP2;P2;SDS_P1;SDS_P2;PMS_P1;PMS_P2;Temp;Humidity;BMP_temperature;BMP_pressure;BME280_temperature;BME280_humidity;BME280_pressure;Samples;Min_cycle;Max_cycle;Signal;HPM_P1;HPM_P2
2021/12/17 00:02:57;;;;;;;29.63;15.90;;;;;;;;;;5024535;28;20465;-82
2021/12/17 00:05:09;;;;;;;25.30;13.83;;;;;;;;;;5024295;28;21002;-82
2021/12/17 00:07:37;;;;;;;32.07;16.80;;;;;;;;;;5024767;28;20944;-82
2021/12/17 00:10:05;;;;;;;27.87;15.90;;;;;;;;;;5022993;28;20479;-81
2021/12/17 00:12:31;;;;;;;28.83;15.03;;;;;;;;;;5024434;28;20472;-82
2021/12/17 00:14:58;;;;;;;30.90;16.63;;;;;;;;;;5022741;28;20476;-82
2021/12/17 00:17:29;;;;;;;27.83;15.90;;;;;;;;;;5024164;28;20469;-82
2021/12/17 00:20:20;;;;;;;29.97;15.40;;;;;;;;;;5023535;28;20853;-85
2021/12/17 00:50:20;;;;;;;30.07;15.37;;;;;;;;;;5023422;28;20479;-82
2021/12/17 00:52:47;;;;;;;26.20;14.27;;;;;;;;;;5023036;28;20465;-81
2021/12/17 00:55:14;;;;;;;25.50;13.17;;;;;;;;;;5025554;28;20484;-82
2021/12/17 00:57:43;;;;;;;28.83;14.90;;;;;;;;;;5023764;28;20480;-82
2021/12/17 01:00:11;;;;;;;28.90;13.37;;;;;;;;;;5023652;28;20886;-82
2021/12/17 01:02:38;;;;;;;21.83;12.13;;;;;;;;;;5024996;28;20469;-82
2021/12/17 01:05:06;;;;;;;22.57;12.87;;;;;;;;;;5023230;28;20938;-80
2021/12/17 01:07:34;;;;;;;27.47;13.80;;;;;;;;;;5024038;28;20524;-82
2021/12/17 01:10:02;;;;;;;20.97;12.77;;;;;;;;;;5022929;28;20508;-82
2021/12/17 01:12:30;;;;;;;24.33;12.97;;;;;;;;;;5022025;28;20528;-82
2021/12/17 01:14:56;;;;;;;24.10;12.63;;;;;;;;;;5020911;28;20536;-82
2021/12/17 01:17:23;;;;;;;22.63;12.90;;;;;;;;;;5024053;28;21005;-82
2021/12/17 01:22:50;;;;;;;28.50;15.30;;;;;;;;;;5027914;28;20440;-82
2021/12/17 01:25:23;;;;;;;21.60;11.77;;;;;;;;;;5027064;28;20480;-82
2021/12/17 01:36:16;;;;;;;16.80;9.60;;;;;;;;;;5027426;28;20981;-82
2021/12/17 01:41:57;;;;;;;14.63;9.03;;;;;;;;;;5027219;28;20436;-82
2021/12/17 01:44:25;;;;;;;15.83;9.40;;;;;;;;;;5027109;28;20530;-82
2021/12/17 01:46:52;;;;;;;14.33;8.60;;;;;;;;;;5028778;28;20449;-82
2021/12/17 01:55:45;;;;;;;13.17;6.87;;;;;;;;;;5027479;28;20487;-82
2021/12/17 02:00:35;;;;;;;8.93;5.63;;;;;;;;;;5029705;28;20476;-82
2021/12/17 02:03:02;;;;;;;9.03;5.60;;;;;;;;;;5029273;28;20492;-82
2021/12/17 02:05:28;;;;;;;10.50;6.37;;;;;;;;;;5029015;28;20480;-82
2021/12/17 02:07:57;;;;;;;9.37;6.23;;;;;;;;;;5028390;28;20504;-81
2021/12/17 02:22:00;;;;;;;6.30;4.10;;;;;;;;;;5027034;28;20433;-82
2021/12/17 02:30:16;;;;;;;3.90;3.20;;;;;;;;;;5025099;28;20473;-82
2021/12/17 02:32:45;;;;;;;5.43;3.60;;;;;;;;;;5026010;28;20457;-81
2021/12/17 02:35:26;;;;;;;4.10;2.80;;;;;;;;;;5024425;28;20477;-82
2021/12/17 02:37:55;;;;;;;5.20;3.47;;;;;;;;;;5026539;28;20468;-82
2021/12/17 02:45:46;;;;;;;8.10;3.70;;;;;;;;;;5025810;28;20463;-82
2021/12/17 02:48:13;;;;;;;6.13;3.27;;;;;;;;;;5025680;28;20516;-82
2021/12/17 02:50:41;;;;;;;6.70;3.50;;;;;;;;;;5023496;28;20546;-82
2021/12/17 02:53:08;;;;;;;6.03;3.27;;;;;;;;;;5023811;28;20453;-83
2021/12/17 02:55:36;;;;;;;5.50;3.67;;;;;;;;;;5023810;28;20467;-82
2021/12/17 02:58:03;;;;;;;4.57;3.90;;;;;;;;;;5023766;28;20472;-82
2021/12/17 03:00:30;;;;;;;6.40;3.53;;;;;;;;;;5023913;28;20828;-82
2021/12/17 03:02:56;;;;;;;8.13;3.97;;;;;;;;;;5025709;28;20469;-82
2021/12/17 03:05:24;;;;;;;6.67;3.20;;;;;;;;;;5025928;28;21114;-82
2021/12/17 03:07:51;;;;;;;5.17;3.47;;;;;;;;;;5048592;22;20488;-82
2021/12/17 03:10:19;;;;;;;7.70;3.70;;;;;;;;;;5017780;28;20484;-84
2021/12/17 03:12:48;;;;;;;16.33;4.60;;;;;;;;;;5022624;28;20465;-83
2021/12/17 03:15:21;;;;;;;5.63;3.87;;;;;;;;;;5020362;28;20480;-83
2021/12/17 03:23:29;;;;;;;5.57;3.23;;;;;;;;;;5022499;28;20477;-83
2021/12/17 03:25:57;;;;;;;8.40;3.73;;;;;;;;;;5021895;28;20927;-82
2021/12/17 03:28:24;;;;;;;4.50;2.63;;;;;;;;;;5020986;28;21107;-83
2021/12/17 03:30:50;;;;;;;5.63;2.93;;;;;;;;;;5020938;28;20519;-85
2021/12/17 03:33:16;;;;;;;4.70;2.50;;;;;;;;;;5021389;28;20449;-82
2021/12/17 03:35:42;;;;;;;6.63;3.30;;;;;;;;;;5021591;28;20998;-84
2021/12/17 03:38:09;;;;;;;7.17;3.83;;;;;;;;;;5021663;28;20531;-83
2021/12/17 03:40:35;;;;;;;4.60;3.20;;;;;;;;;;5021217;28;20477;-82
2021/12/17 03:43:10;;;;;;;10.07;4.10;;;;;;;;;;5020739;28;20446;-81
2021/12/17 03:45:37;;;;;;;4.80;2.73;;;;;;;;;;5019724;28;20472;-84
2021/12/17 03:48:03;;;;;;;6.33;3.33;;;;;;;;;;5020705;28;20456;-82
2021/12/17 03:50:33;;;;;;;5.60;3.63;;;;;;;;;;5022794;28;20458;-83
2021/12/17 03:52:59;;;;;;;7.03;3.67;;;;;;;;;;5021568;28;20488;-85
2021/12/17 03:55:25;;;;;;;12.07;4.63;;;;;;;;;;5019852;28;20484;-84
2021/12/17 03:57:51;;;;;;;6.33;3.90;;;;;;;;;;5020927;28;20522;-85
2021/12/17 04:00:19;;;;;;;6.37;3.67;;;;;;;;;;5020854;28;20526;-84
2021/12/17 04:02:46;;;;;;;7.67;3.90;;;;;;;;;;5021714;28;20460;-83
2021/12/17 04:05:12;;;;;;;5.50;3.70;;;;;;;;;;5018478;28;20481;-84
2021/12/17 04:07:38;;;;;;;7.07;3.90;;;;;;;;;;5020790;28;20445;-83
2021/12/17 04:10:05;;;;;;;6.97;3.90;;;;;;;;;;5019611;28;20994;-84
2021/12/17 04:12:42;;;;;;;8.13;3.67;;;;;;;;;;5020427;28;20473;-84
2021/12/17 04:15:09;;;;;;;10.07;4.80;;;;;;;;;;5019864;28;21022;-84
2021/12/17 04:17:42;;;;;;;6.50;3.07;;;;;;;;;;5020480;28;20477;-83
2021/12/17 04:20:09;;;;;;;7.10;3.70;;;;;;;;;;5019712;28;20486;-85
2021/12/17 04:22:35;;;;;;;6.00;3.10;;;;;;;;;;5021027;28;20460;-84
2021/12/17 04:25:02;;;;;;;5.23;3.30;;;;;;;;;;5019562;28;20473;-84
2021/12/17 04:27:28;;;;;;;5.50;3.17;;;;;;;;;;5018984;28;20464;-84
2021/12/17 04:29:56;;;;;;;4.73;2.57;;;;;;;;;;5020100;28;20476;-84
2021/12/17 04:32:23;;;;;;;4.30;2.73;;;;;;;;;;5022227;28;20450;-83
2021/12/17 04:34:50;;;;;;;5.77;3.17;;;;;;;;;;5020583;28;20485;-82
2021/12/17 04:37:17;;;;;;;7.40;3.87;;;;;;;;;;5018549;28;20457;-83
2021/12/17 04:39:43;;;;;;;6.87;3.00;;;;;;;;;;5018431;28;20484;-82
2021/12/17 04:42:15;;;;;;;8.30;3.00;;;;;;;;;;5021160;28;20448;-82
2021/12/17 04:44:49;;;;;;;4.73;2.63;;;;;;;;;;5020383;28;20559;-82
2021/12/17 04:58:16;;;;;;;12.63;5.37;;;;;;;;;;5022706;28;20468;-82
2021/12/17 05:00:42;;;;;;;9.30;4.13;;;;;;;;;;5023634;28;20499;-82
2021/12/17 05:03:08;;;;;;;13.53;5.17;;;;;;;;;;5024261;28;20437;-82
2021/12/17 05:05:36;;;;;;;8.13;4.03;;;;;;;;;;5023827;28;20456;-84
2021/12/17 05:08:06;;;;;;;7.97;4.60;;;;;;;;;;5022442;28;20465;-82
2021/12/17 05:10:51;;;;;;;6.80;4.07;;;;;;;;;;5024170;28;20452;-82
2021/12/17 05:18:50;;;;;;;9.40;5.03;;;;;;;;;;5022903;28;20469;-84
2021/12/17 05:21:21;;;;;;;10.50;6.20;;;;;;;;;;5022988;28;20484;-84
2021/12/17 05:23:51;;;;;;;11.87;6.13;;;;;;;;;;5022267;28;20514;-82
2021/12/17 05:26:18;;;;;;;11.27;6.07;;;;;;;;;;5024035;28;20457;-81
2021/12/17 05:28:45;;;;;;;17.30;7.30;;;;;;;;;;5024510;28;20515;-83
2021/12/17 05:31:11;;;;;;;11.20;5.67;;;;;;;;;;5017845;28;20973;-82
2021/12/17 05:33:37;;;;;;;15.20;6.70;;;;;;;;;;5020631;28;20915;-84
2021/12/17 05:36:04;;;;;;;14.83;7.00;;;;;;;;;;5021521;28;20467;-83
2021/12/17 05:38:31;;;;;;;16.50;8.03;;;;;;;;;;5023950;28;20481;-84
2021/12/17 05:40:58;;;;;;;14.43;7.73;;;;;;;;;;5024237;28;20488;-82
2021/12/17 05:43:24;;;;;;;18.63;8.40;;;;;;;;;;5022252;28;20480;-82
2021/12/17 05:46:03;;;;;;;14.03;8.07;;;;;;;;;;5023063;28;20519;-82
2021/12/17 05:48:30;;;;;;;18.87;7.50;;;;;;;;;;5022424;28;20478;-82
2021/12/17 05:50:58;;;;;;;13.93;6.50;;;;;;;;;;5022485;28;20445;-82
2021/12/17 05:53:24;;;;;;;12.97;6.93;;;;;;;;;;5022884;28;20469;-82
2021/12/17 05:55:52;;;;;;;16.30;7.03;;;;;;;;;;5022824;28;20464;-82
2021/12/17 05:58:19;;;;;;;12.57;6.47;;;;;;;;;;5021780;28;20484;-84
2021/12/17 06:00:45;;;;;;;11.23;7.07;;;;;;;;;;5021333;28;20488;-85
2021/12/17 06:03:12;;;;;;;13.80;6.73;;;;;;;;;;5022822;28;20457;-83
2021/12/17 06:05:38;;;;;;;12.57;7.53;;;;;;;;;;5021499;28;20958;-84
2021/12/17 06:08:05;;;;;;;17.27;8.80;;;;;;;;;;5020724;28;20461;-82
2021/12/17 06:10:31;;;;;;;14.57;8.00;;;;;;;;;;5022228;28;20469;-81
2021/12/17 06:12:59;;;;;;;20.00;8.13;;;;;;;;;;5023061;28;20469;-83
2021/12/17 06:15:25;;;;;;;16.10;7.60;;;;;;;;;;5022947;28;20524;-81
2021/12/17 06:17:52;;;;;;;13.30;6.67;;;;;;;;;;5023161;28;20468;-84
2021/12/17 06:20:19;;;;;;;17.27;7.37;;;;;;;;;;5022656;28;20474;-83
2021/12/17 06:22:46;;;;;;;14.73;7.70;;;;;;;;;;5021298;28;20537;-84
2021/12/17 06:25:13;;;;;;;13.13;7.23;;;;;;;;;;5021212;28;20511;-82
2021/12/17 06:27:39;;;;;;;15.30;7.03;;;;;;;;;;5022326;28;20460;-83
2021/12/17 06:30:08;;;;;;;12.10;7.17;;;;;;;;;;5019976;28;20997;-82
2021/12/17 06:32:35;;;;;;;13.23;6.93;;;;;;;;;;5022254;28;20519;-83
2021/12/17 06:35:01;;;;;;;12.40;6.70;;;;;;;;;;5024149;28;20491;-83
2021/12/17 06:37:27;;;;;;;19.20;9.17;;;;;;;;;;5022622;28;20450;-84
2021/12/17 06:39:53;;;;;;;16.33;8.70;;;;;;;;;;5022444;28;20488;-85
2021/12/17 06:42:20;;;;;;;17.23;8.03;;;;;;;;;;5022689;28;20458;-84
2021/12/17 06:44:47;;;;;;;13.90;7.77;;;;;;;;;;5020301;28;20920;-86
2021/12/17 06:47:26;;;;;;;17.70;6.97;;;;;;;;;;5019116;28;20538;-85
2021/12/17 06:49:58;;;;;;;16.07;8.93;;;;;;;;;;5022526;28;20472;-84
2021/12/17 06:55:23;;;;;;;14.47;8.10;;;;;;;;;;5022844;28;21016;-86
2021/12/17 07:00:57;;;;;;;15.40;8.40;;;;;;;;;;4988447;28;20477;-83
2021/12/17 07:06:16;;;;;;;16.37;8.47;;;;;;;;;;5022603;28;20949;-84
2021/12/17 07:11:51;;;;;;;19.87;9.50;;;;;;;;;;5022984;28;20460;-84
2021/12/17 07:17:21;;;;;;;22.83;11.30;;;;;;;;;;5021173;28;20436;-83
2021/12/17 07:22:50;;;;;;;25.47;11.10;;;;;;;;;;5022324;28;20990;-86
2021/12/17 07:28:10;;;;;;;30.17;14.93;;;;;;;;;;5022058;28;20424;-86
2021/12/17 07:33:32;;;;;;;29.77;13.63;;;;;;;;;;5021607;28;20432;-85
2021/12/17 07:36:08;;;;;;;37.57;14.90;;;;;;;;;;5020862;28;20832;-83
2021/12/17 07:38:39;;;;;;;37.63;15.37;;;;;;;;;;5021004;28;20501;-85
2021/12/17 07:41:05;;;;;;;30.10;14.97;;;;;;;;;;5019614;28;20531;-83
2021/12/17 07:43:37;;;;;;;27.53;13.13;;;;;;;;;;5020483;28;20476;-84
2021/12/17 07:46:05;;;;;;;29.73;12.87;;;;;;;;;;5021602;28;20665;-84
2021/12/17 07:48:32;;;;;;;25.40;12.97;;;;;;;;;;5020878;28;20559;-83
2021/12/17 07:51:02;;;;;;;27.80;13.60;;;;;;;;;;5023998;28;20496;-84
2021/12/17 07:53:28;;;;;;;26.13;13.03;;;;;;;;;;5019272;28;20471;-83
2021/12/17 07:55:54;;;;;;;26.23;13.23;;;;;;;;;;5021073;28;20461;-83
2021/12/17 07:58:20;;;;;;;24.57;11.70;;;;;;;;;;5020928;28;20538;-83
2021/12/17 08:00:47;;;;;;;24.33;11.30;;;;;;;;;;5021514;28;20488;-84
2021/12/17 08:03:14;;;;;;;23.30;12.00;;;;;;;;;;5020142;28;20480;-84
2021/12/17 08:05:42;;;;;;;22.03;11.67;;;;;;;;;;5019782;28;20477;-85
2021/12/17 08:08:10;;;;;;;22.43;10.70;;;;;;;;;;5019655;28;20480;-85
2021/12/17 08:10:36;;;;;;;19.20;11.23;;;;;;;;;;5019473;28;20535;-84
2021/12/17 08:13:05;;;;;;;17.60;9.67;;;;;;;;;;5021286;28;20977;-86
2021/12/17 08:15:43;;;;;;;26.27;12.77;;;;;;;;;;5020501;28;20446;-84
2021/12/17 08:18:28;;;;;;;20.70;10.17;;;;;;;;;;5020029;28;20473;-84
2021/12/17 08:26:41;;;;;;;17.13;9.67;;;;;;;;;;5019187;28;20536;-83
2021/12/17 08:29:28;;;;;;;19.23;9.73;;;;;;;;;;5021904;28;20845;-85
2021/12/17 08:31:55;;;;;;;23.90;9.70;;;;;;;;;;5024249;28;20518;-85
2021/12/17 08:34:22;;;;;;;19.30;10.33;;;;;;;;;;5025428;28;20479;-84
2021/12/17 08:36:48;;;;;;;19.10;10.10;;;;;;;;;;5022499;28;20516;-85
2021/12/17 08:39:16;;;;;;;16.40;9.13;;;;;;;;;;5022512;28;21031;-85
2021/12/17 08:41:42;;;;;;;18.80;9.77;;;;;;;;;;5024403;28;20519;-83
2021/12/17 08:44:08;;;;;;;16.43;9.60;;;;;;;;;;5023797;28;20477;-84
2021/12/17 08:46:35;;;;;;;17.80;9.93;;;;;;;;;;5025025;28;20457;-83
2021/12/17 08:49:01;;;;;;;18.17;9.27;;;;;;;;;;5024553;28;20987;-83
2021/12/17 08:51:27;;;;;;;21.23;9.90;;;;;;;;;;5021386;28;20484;-82
2021/12/17 08:53:54;;;;;;;17.80;9.03;;;;;;;;;;5023554;28;20993;-84
2021/12/17 08:56:23;;;;;;;16.50;9.70;;;;;;;;;;5024828;28;20515;-85
2021/12/17 08:58:51;;;;;;;19.83;9.10;;;;;;;;;;5024294;28;20465;-85
2021/12/17 09:01:17;;;;;;;18.40;11.77;;;;;;;;;;5024906;28;20496;-86
2021/12/17 09:03:43;;;;;;;16.90;10.23;;;;;;;;;;5024958;28;20535;-85
2021/12/17 09:06:10;;;;;;;17.30;9.67;;;;;;;;;;5019413;28;20460;-84
2021/12/17 09:08:36;;;;;;;14.60;9.37;;;;;;;;;;5020761;28;20457;-85
2021/12/17 09:11:03;;;;;;;15.70;9.00;;;;;;;;;;5025664;28;20523;-84
2021/12/17 09:13:30;;;;;;;7.20;5.53;;;;;;;;;;5021280;28;20978;-84
2021/12/17 09:15:57;;;;;;;3.37;2.83;;;;;;;;;;5024988;28;20480;-85
2021/12/17 09:18:24;;;;;;;4.07;3.60;;;;;;;;;;5023296;28;20477;-85
2021/12/17 09:20:50;;;;;;;5.40;4.03;;;;;;;;;;5020644;28;20532;-84
2021/12/17 09:23:17;;;;;;;5.50;3.20;;;;;;;;;;5020474;28;20454;-84
2021/12/17 09:25:44;;;;;;;6.73;3.93;;;;;;;;;;5025417;28;20508;-84
2021/12/17 09:28:10;;;;;;;5.00;4.00;;;;;;;;;;5023440;28;20483;-85
2021/12/17 09:30:38;;;;;;;3.33;3.03;;;;;;;;;;5025095;28;20465;-86
2021/12/17 09:33:04;;;;;;;5.40;4.37;;;;;;;;;;5023719;28;20452;-86
2021/12/17 09:35:30;;;;;;;4.10;3.70;;;;;;;;;;5024453;28;20454;-85
2021/12/17 09:37:57;;;;;;;5.60;3.70;;;;;;;;;;5025076;28;20522;-85
2021/12/17 09:40:23;;;;;;;7.13;3.57;;;;;;;;;;5023597;28;20473;-86
2021/12/17 09:42:49;;;;;;;3.70;3.13;;;;;;;;;;5024390;28;20481;-84
2021/12/17 09:45:16;;;;;;;3.60;2.70;;;;;;;;;;5024150;28;20895;-84
2021/12/17 09:47:45;;;;;;;4.03;2.87;;;;;;;;;;5023877;28;20458;-84
2021/12/17 09:50:13;;;;;;;2.97;2.13;;;;;;;;;;5022898;28;20480;-84
2021/12/17 09:52:39;;;;;;;3.47;3.10;;;;;;;;;;5023269;28;21001;-86
2021/12/17 09:55:06;;;;;;;5.20;3.00;;;;;;;;;;5024781;28;20472;-83
2021/12/17 09:57:36;;;;;;;7.53;4.47;;;;;;;;;;5024675;28;20498;-84
2021/12/17 10:00:02;;;;;;;8.47;4.33;;;;;;;;;;5023734;28;20500;-84
2021/12/17 10:02:28;;;;;;;8.33;4.27;;;;;;;;;;5021913;28;20490;-84
2021/12/17 10:04:56;;;;;;;8.73;4.83;;;;;;;;;;5023192;28;20460;-84
2021/12/17 10:07:24;;;;;;;9.00;5.13;;;;;;;;;;5021734;28;20445;-84
2021/12/17 10:09:51;;;;;;;11.87;6.73;;;;;;;;;;5022922;28;20474;-84
2021/12/17 10:12:21;;;;;;;9.50;5.40;;;;;;;;;;5022514;28;20473;-84
2021/12/17 10:14:58;;;;;;;13.43;5.53;;;;;;;;;;5022371;28;20477;-84
2021/12/17 10:17:25;;;;;;;10.27;5.33;;;;;;;;;;5023943;28;20463;-85
2021/12/17 10:19:53;;;;;;;11.60;5.37;;;;;;;;;;5020778;28;20894;-84
2021/12/17 10:22:21;;;;;;;12.20;6.50;;;;;;;;;;5023563;28;20512;-84
2021/12/17 10:24:57;;;;;;;8.63;6.10;;;;;;;;;;5023882;28;20565;-85
2021/12/17 10:27:25;;;;;;;9.60;6.77;;;;;;;;;;5024483;28;20460;-83
2021/12/17 10:29:51;;;;;;;11.27;7.00;;;;;;;;;;5024104;28;20507;-82
2021/12/17 10:32:18;;;;;;;13.73;8.67;;;;;;;;;;5022406;28;20954;-83
2021/12/17 10:35:01;;;;;;;12.53;6.87;;;;;;;;;;5025563;28;20524;-82
2021/12/17 10:37:39;;;;;;;12.90;8.63;;;;;;;;;;5026071;28;20472;-84
2021/12/17 10:40:15;;;;;;;18.33;7.77;;;;;;;;;;5023638;28;20479;-85
2021/12/17 10:42:49;;;;;;;12.23;7.00;;;;;;;;;;5024288;28;20557;-85
2021/12/17 10:45:23;;;;;;;12.60;8.40;;;;;;;;;;5024213;28;21097;-85
2021/12/17 10:48:01;;;;;;;12.07;8.27;;;;;;;;;;5022016;28;20460;-83
2021/12/17 10:50:28;;;;;;;13.27;7.60;;;;;;;;;;5023198;28;21040;-84
2021/12/17 10:52:56;;;;;;;15.03;8.13;;;;;;;;;;5021963;28;20516;-86
2021/12/17 10:55:24;;;;;;;10.90;6.77;;;;;;;;;;5021311;28;20466;-84
2021/12/17 10:57:50;;;;;;;11.47;7.97;;;;;;;;;;5021426;28;20465;-84
2021/12/17 11:00:18;;;;;;;11.90;6.87;;;;;;;;;;5019825;28;21005;-84
2021/12/17 11:02:48;;;;;;;11.43;7.03;;;;;;;;;;5023968;28;20568;-83
2021/12/17 11:05:15;;;;;;;10.17;6.83;;;;;;;;;;5019739;28;20523;-83
2021/12/17 11:07:44;;;;;;;9.63;6.80;;;;;;;;;;5023525;28;20465;-84
2021/12/17 11:10:12;;;;;;;7.50;5.87;;;;;;;;;;5021055;28;20491;-84
2021/12/17 11:12:38;;;;;;;9.03;6.80;;;;;;;;;;5019295;28;20466;-86
2021/12/17 11:15:09;;;;;;;9.80;5.77;;;;;;;;;;5021682;28;21064;-86
2021/12/17 11:17:36;;;;;;;9.40;6.90;;;;;;;;;;5020068;28;20815;-86
2021/12/17 11:20:04;;;;;;;11.10;7.50;;;;;;;;;;5018300;28;20480;-85
2021/12/17 11:22:31;;;;;;;10.90;7.67;;;;;;;;;;5021583;28;20485;-84
2021/12/17 11:24:59;;;;;;;10.73;7.30;;;;;;;;;;5022852;28;20548;-83
2021/12/17 11:27:27;;;;;;;10.37;7.90;;;;;;;;;;5020094;28;20519;-83
2021/12/17 11:29:54;;;;;;;16.13;8.33;;;;;;;;;;5020990;28;20999;-85
2021/12/17 11:32:20;;;;;;;18.97;9.03;;;;;;;;;;5021983;28;21403;-83
2021/12/17 11:34:47;;;;;;;12.43;7.27;;;;;;;;;;5019973;28;20475;-85
2021/12/17 11:37:15;;;;;;;13.27;9.03;;;;;;;;;;5022526;28;20499;-84
2021/12/17 11:39:43;;;;;;;8.83;7.30;;;;;;;;;;5019928;28;20472;-84
2021/12/17 11:42:19;;;;;;;12.40;8.90;;;;;;;;;;5023018;28;20495;-84
2021/12/17 11:45:22;;;;;;;15.37;10.50;;;;;;;;;;5021384;28;20464;-83
2021/12/17 11:47:36;;;;;;;10.77;9.10;;;;;;;;;;5021617;28;20450;-84
2021/12/17 11:50:05;;;;;;;10.00;7.90;;;;;;;;;;5020587;28;20480;-85
2021/12/17 11:52:42;;;;;;;16.20;7.83;;;;;;;;;;5021097;28;20452;-85
2021/12/17 11:55:28;;;;;;;16.50;7.40;;;;;;;;;;5021300;28;20460;-83
2021/12/17 11:57:57;;;;;;;7.70;6.73;;;;;;;;;;5022463;28;20464;-85
2021/12/17 12:00:26;;;;;;;10.77;8.07;;;;;;;;;;5021387;28;20497;-83
2021/12/17 12:02:54;;;;;;;8.37;6.33;;;;;;;;;;5021538;28;20489;-84
2021/12/17 12:05:34;;;;;;;9.80;6.43;;;;;;;;;;5020302;28;20565;-83
2021/12/17 12:08:15;;;;;;;7.97;5.97;;;;;;;;;;5021296;28;20897;-86
2021/12/17 12:10:41;;;;;;;11.27;6.30;;;;;;;;;;5021805;28;20509;-83
2021/12/17 12:13:07;;;;;;;7.47;5.50;;;;;;;;;;5021959;28;20461;-85
2021/12/17 12:15:37;;;;;;;10.80;6.17;;;;;;;;;;5019669;28;20460;-84
2021/12/17 12:18:08;;;;;;;9.43;5.63;;;;;;;;;;5019963;28;20544;-82
2021/12/17 12:20:38;;;;;;;6.40;5.00;;;;;;;;;;5022242;28;20448;-83
2021/12/17 12:23:16;;;;;;;7.20;5.40;;;;;;;;;;5013556;28;20543;-85
2021/12/17 12:25:55;;;;;;;5.97;4.87;;;;;;;;;;5021786;28;20455;-85
2021/12/17 12:28:41;;;;;;;7.17;5.43;;;;;;;;;;5021366;28;20546;-83
2021/12/17 12:31:08;;;;;;;8.77;6.20;;;;;;;;;;5021339;28;20447;-85
2021/12/17 12:33:35;;;;;;;6.63;4.70;;;;;;;;;;5021437;28;20504;-85
2021/12/17 12:36:01;;;;;;;7.03;5.03;;;;;;;;;;5021794;28;20437;-85
2021/12/17 12:38:29;;;;;;;8.20;5.70;;;;;;;;;;5020798;28;20478;-84
2021/12/17 12:40:57;;;;;;;8.20;6.27;;;;;;;;;;5020814;28;20461;-82
2021/12/17 12:43:28;;;;;;;7.33;5.40;;;;;;;;;;5019827;28;20468;-83
2021/12/17 12:45:54;;;;;;;11.70;7.63;;;;;;;;;;5019514;28;20537;-85
2021/12/17 12:48:32;;;;;;;12.83;7.40;;;;;;;;;;5017650;28;20472;-83
2021/12/17 12:51:13;;;;;;;10.07;6.63;;;;;;;;;;5020620;28;20987;-85
2021/12/17 12:53:39;;;;;;;9.30;5.80;;;;;;;;;;5021992;28;20485;-83
2021/12/17 12:56:07;;;;;;;8.70;6.03;;;;;;;;;;5020970;28;20456;-84
2021/12/17 12:58:37;;;;;;;8.63;6.17;;;;;;;;;;5020145;28;20530;-86
2021/12/17 13:01:06;;;;;;;9.73;5.70;;;;;;;;;;5017817;28;21127;-84
2021/12/17 13:03:34;;;;;;;7.10;5.63;;;;;;;;;;5019522;28;20477;-84
2021/12/17 13:06:01;;;;;;;6.30;5.07;;;;;;;;;;5020905;28;20942;-83
2021/12/17 13:08:30;;;;;;;5.80;4.70;;;;;;;;;;5020123;28;20830;-84
2021/12/17 13:10:59;;;;;;;7.83;5.23;;;;;;;;;;5022432;28;20446;-83
2021/12/17 13:13:32;;;;;;;6.77;5.43;;;;;;;;;;5021435;28;20480;-83
2021/12/17 13:16:14;;;;;;;8.97;5.67;;;;;;;;;;5024254;28;20551;-85
2021/12/17 13:24:24;;;;;;;8.37;6.30;;;;;;;;;;5103322;27;20915;-84
2021/12/17 13:26:52;;;;;;;9.97;5.90;;;;;;;;;;5095230;28;20861;-81
2021/12/17 13:29:21;;;;;;;7.90;6.10;;;;;;;;;;5094536;27;20480;-84
2021/12/17 13:31:51;;;;;;;6.60;5.60;;;;;;;;;;5091998;28;20489;-84
2021/12/17 13:34:20;;;;;;;15.13;6.87;;;;;;;;;;5089796;27;20465;-82
2021/12/17 13:36:54;;;;;;;12.17;7.70;;;;;;;;;;5092955;28;20450;-85
2021/12/17 13:39:22;;;;;;;10.47;6.50;;;;;;;;;;5095476;27;21096;-85
2021/12/17 13:41:49;;;;;;;10.30;6.20;;;;;;;;;;5090894;28;20466;-84
2021/12/17 13:44:26;;;;;;;10.63;6.23;;;;;;;;;;5091275;27;20476;-85
2021/12/17 13:46:53;;;;;;;10.20;6.37;;;;;;;;;;5088627;28;20925;-84
2021/12/17 13:49:19;;;;;;;9.33;7.33;;;;;;;;;;5091690;27;20470;-81
2021/12/17 13:51:46;;;;;;;14.10;7.50;;;;;;;;;;5095194;28;20813;-81
2021/12/17 13:54:13;;;;;;;11.50;7.83;;;;;;;;;;5096309;27;20472;-82
2021/12/17 13:56:41;;;;;;;17.33;8.70;;;;;;;;;;5099824;28;20452;-84
2021/12/17 13:59:08;;;;;;;16.30;9.23;;;;;;;;;;5087807;27;20466;-82
2021/12/17 14:01:36;;;;;;;15.57;9.57;;;;;;;;;;5087217;28;20494;-81
2021/12/17 14:04:11;;;;;;;12.23;8.53;;;;;;;;;;5098939;27;20512;-83
2021/12/17 14:06:50;;;;;;;13.97;9.20;;;;;;;;;;5088390;28;20450;-82
2021/12/17 14:09:17;;;;;;;22.13;10.27;;;;;;;;;;5091948;27;20457;-80
2021/12/17 14:11:44;;;;;;;18.37;10.10;;;;;;;;;;5093752;28;20470;-81
2021/12/17 14:14:20;;;;;;;13.90;9.40;;;;;;;;;;5095481;27;20457;-83
2021/12/17 14:16:55;;;;;;;14.70;9.10;;;;;;;;;;5089470;28;20449;-82
2021/12/17 14:19:34;;;;;;;19.17;9.07;;;;;;;;;;5090895;27;20476;-81
2021/12/17 14:22:00;;;;;;;21.73;10.50;;;;;;;;;;5096647;28;20477;-83
2021/12/17 14:24:30;;;;;;;15.77;11.20;;;;;;;;;;5095313;27;20490;-82
2021/12/17 14:26:58;;;;;;;20.67;11.37;;;;;;;;;;5090567;28;20541;-82
2021/12/17 14:29:28;;;;;;;22.13;11.87;;;;;;;;;;5092315;27;20524;-80
2021/12/17 14:31:58;;;;;;;17.60;12.37;;;;;;;;;;5088050;28;20892;-81
2021/12/17 14:34:24;;;;;;;19.60;11.60;;;;;;;;;;5091089;27;20462;-81
2021/12/17 14:37:00;;;;;;;19.10;11.10;;;;;;;;;;5088922;28;20458;-83
2021/12/17 14:39:34;;;;;;;11.43;7.90;;;;;;;;;;5076568;28;20471;-82
2021/12/17 14:42:05;;;;;;;15.97;9.50;;;;;;;;;;5078164;28;20465;-83
2021/12/17 14:44:38;;;;;;;10.77;7.07;;;;;;;;;;5069028;28;20486;-83
2021/12/17 14:47:14;;;;;;;15.37;8.27;;;;;;;;;;5078834;28;20499;-84
2021/12/17 14:59:16;;;;;;;9.63;7.33;;;;;;;;;;5074913;28;20476;-83
2021/12/17 15:01:08;;;;;;;9.60;6.80;;;;;;;;;;5083127;28;20536;-82
2021/12/17 15:03:41;;;;;;;9.20;6.10;;;;;;;;;;5077662;28;20501;-82
2021/12/17 15:06:08;;;;;;;10.03;6.20;;;;;;;;;;5081881;28;21114;-83
2021/12/17 15:08:34;;;;;;;7.30;6.33;;;;;;;;;;5082753;23;20501;-81
2021/12/17 15:11:03;;;;;;;8.20;5.60;;;;;;;;;;5187629;22;20500;-81
2021/12/17 15:13:31;;;;;;;6.63;5.50;;;;;;;;;;5070178;28;20489;-81
2021/12/17 15:15:58;;;;;;;7.20;4.80;;;;;;;;;;5069926;28;20459;-81
2021/12/17 15:18:24;;;;;;;8.93;6.40;;;;;;;;;;5070575;28;20892;-80
2021/12/17 15:20:51;;;;;;;8.33;6.10;;;;;;;;;;5069493;28;20471;-81
2021/12/17 15:23:18;;;;;;;10.27;6.23;;;;;;;;;;5071315;28;20536;-80
2021/12/17 15:25:44;;;;;;;8.87;5.73;;;;;;;;;;5071587;28;20440;-82
2021/12/17 15:28:11;;;;;;;6.77;5.10;;;;;;;;;;5068151;28;20520;-81
2021/12/17 15:30:41;;;;;;;9.10;5.03;;;;;;;;;;5070449;28;20475;-81
2021/12/17 15:33:07;;;;;;;12.90;5.93;;;;;;;;;;5069491;28;20451;-82
2021/12/17 15:35:33;;;;;;;7.97;5.60;;;;;;;;;;5070234;28;20466;-81
2021/12/17 15:38:00;;;;;;;6.53;5.40;;;;;;;;;;5069832;28;20482;-79
2021/12/17 15:40:27;;;;;;;12.43;6.27;;;;;;;;;;5069648;28;20467;-81
2021/12/17 15:42:54;;;;;;;7.40;5.90;;;;;;;;;;5067938;28;20865;-82
2021/12/17 15:45:20;;;;;;;9.80;6.40;;;;;;;;;;5067428;28;20497;-82
2021/12/17 15:47:48;;;;;;;6.03;4.80;;;;;;;;;;5065550;28;20450;-82
2021/12/17 15:50:15;;;;;;;6.93;5.43;;;;;;;;;;5068068;28;20597;-80
2021/12/17 15:52:44;;;;;;;8.33;6.00;;;;;;;;;;5069752;28;20440;-82
2021/12/17 15:55:11;;;;;;;8.40;5.90;;;;;;;;;;5068766;28;20846;-81
2021/12/17 15:57:37;;;;;;;8.27;6.47;;;;;;;;;;5069485;28;20482;-82
2021/12/17 16:00:04;;;;;;;8.60;6.20;;;;;;;;;;5067076;28;20471;-81
2021/12/17 16:02:31;;;;;;;7.43;6.30;;;;;;;;;;5066534;28;20482;-81
2021/12/17 16:04:58;;;;;;;10.90;6.23;;;;;;;;;;5069924;28;20467;-82
2021/12/17 16:07:24;;;;;;;13.33;9.60;;;;;;;;;;5069332;28;20450;-82
2021/12/17 16:18:28;;;;;;;9.90;6.80;;;;;;;;;;5067221;28;20447;-81
2021/12/17 16:21:02;;;;;;;10.50;8.20;;;;;;;;;;5068564;28;20460;-82
2021/12/17 16:23:28;;;;;;;12.27;8.73;;;;;;;;;;5067092;28;20961;-81
2021/12/17 16:25:55;;;;;;;12.07;8.63;;;;;;;;;;5066052;28;20456;-82
2021/12/17 16:28:21;;;;;;;13.00;8.30;;;;;;;;;;5064328;28;20447;-82
2021/12/17 16:30:47;;;;;;;10.73;8.13;;;;;;;;;;5069629;28;20482;-81
2021/12/17 16:33:13;;;;;;;13.40;9.40;;;;;;;;;;5067846;28;20467;-81
2021/12/17 16:35:41;;;;;;;12.20;9.00;;;;;;;;;;5064524;28;20511;-82
2021/12/17 16:38:08;;;;;;;17.97;10.90;;;;;;;;;;5066625;28;20782;-81
2021/12/17 16:40:35;;;;;;;14.90;10.40;;;;;;;;;;5066119;28;20463;-82
2021/12/17 16:43:01;;;;;;;19.90;12.47;;;;;;;;;;5067987;28;20443;-81
2021/12/17 16:45:33;;;;;;;12.87;10.47;;;;;;;;;;5065845;28;20475;-82
2021/12/17 16:48:03;;;;;;;15.10;10.93;;;;;;;;;;5070364;28;20474;-80
2021/12/17 16:50:31;;;;;;;16.80;11.57;;;;;;;;;;5071235;28;20462;-83
2021/12/17 16:52:57;;;;;;;16.20;10.30;;;;;;;;;;5068015;28;20451;-82
2021/12/17 16:55:25;;;;;;;14.83;10.67;;;;;;;;;;5068363;28;20501;-82
2021/12/17 16:57:51;;;;;;;14.80;9.90;;;;;;;;;;5065838;28;20530;-81
2021/12/17 17:00:18;;;;;;;15.70;10.40;;;;;;;;;;5065924;28;20486;-82
2021/12/17 17:02:44;;;;;;;11.50;7.87;;;;;;;;;;5066346;28;20463;-82
2021/12/17 17:05:10;;;;;;;13.50;8.27;;;;;;;;;;5069121;28;20906;-82
2021/12/17 17:07:36;;;;;;;15.80;9.03;;;;;;;;;;5066610;28;21266;-81
2021/12/17 17:10:03;;;;;;;12.07;8.47;;;;;;;;;;5065981;28;21102;-82
2021/12/17 17:12:31;;;;;;;14.37;9.57;;;;;;;;;;5067438;28;20487;-81